LIPC

Cervia Air Force Base

Airport
ICAO code
LIPC
Summary
ICAO Region
EUR
ICAO Territory
Location

Cervia, Emilia-Romagna

Serving
Cervia
Elevation
18 ft
Coordinates
44° 13' 30" N , 12° 18' 20" E
KCC
Metar
Observation
LIPC 031755Z 19006KT 9000 NSC 07/06 Q1022
Station
Cervia
Date/Time
2023-02-03 17:55:00
Wind direction
190°
Wind speed
06 kts
Lowest cloud amount
nil significant cloud
Temperature
7°C
Dew point
6°C
Humidity
93%
QNH
1022 hPa
Weather condition
n/a

Cervia Air Base is an air base of the Italian Air Force. It is located approximately 3.2 nm southwest of Cervia, in the province of Ravenna (Emilia-Romagna) in northern Italy.

Climatology

Humid subtropical climate (Köppen climate classification Cfa)

Runways

Designator Length Width Surface Rops
12/30 3050 45 ASP No/No

Airport map

Aerial View

SKYbrary Partners:

Safety knowledge contributed by: